This is the latest recevied weather packets stored in our database for station/object 9M4RBN-3. If no packets are shown the sender has not sent any weather packets the latest 10 day(s).
| Time | Temp. | Humidity | Pressure | Rain* | Wind** | Luminosity | Snow |
|---|---|---|---|---|---|---|---|
| 1787615340 | 23.89° C | 51% | 1017.5 hPa | - | - | - | - |
| 1787614440 | 23.89° C | 51% | 1017 hPa | - | - | - | - |
| 1787613540 | 23.89° C | 51% | 1016.8 hPa | - | - | - | - |
| 1787612639 | 23.89° C | 50% | 1016.6 hPa | - | - | - | - |
| 1787611739 | 23.89° C | 51% | 1016.6 hPa | - | - | - | - |
| 1787610839 | 24.44° C | 50% | 1016.5 hPa | - | - | - | - |
| 1787609939 | 24.44° C | 50% | 1016.4 hPa | - | - | - | - |
| 1787609039 | 24.44° C | 50% | 1016.4 hPa | - | - | - | - |
| 1787608139 | 25° C | 49% | 1016.6 hPa | - | - | - | - |
| 1787607239 | 25° C | 49% | 1016.4 hPa | - | - | - | - |
| 1787606339 | 25.56° C | 48% | 1016.4 hPa | - | - | - | - |
| 1787605439 | 25.56° C | 48% | 1016.3 hPa | - | - | - | - |
| 1787604539 | 26.11° C | 49% | 1016.2 hPa | - | - | - | - |
| 1787603639 | 26.67° C | 52% | 1016.1 hPa | - | - | - | - |
| 1787602739 | 27.78° C | 59% | 1016.1 hPa | - | - | - | - |
| 1787601839 | 28.33° C | 71% | 1016.2 hPa | - | - | - | - |
| 1787600939 | 28.33° C | 71% | 1016.3 hPa | - | - | - | - |
| 1787600039 | 28.33° C | 71% | 1016.4 hPa | - | - | - | - |
| 1787599139 | 28.33° C | 71% | 1016.5 hPa | - | - | - | - |
| 1787598239 | 28.33° C | 70% | 1016.5 hPa | - | - | - | - |
| 1787597339 | 28.33° C | 71% | 1016.7 hPa | - | - | - | - |
| 1787596439 | 28.33° C | 70% | 1017 hPa | - | - | - | - |
| 1787595538 | 28.33° C | 70% | 1017.2 hPa | - | - | - | - |
| 1787594638 | 28.33° C | 70% | 1017.5 hPa | - | - | - | - |
| 1787593738 | 28.33° C | 69% | 1017.6 hPa | - | - | - | - |
* Rain since midnight (hover to see other rain measurements)
** Current wind speed in m/s (hover to see current wind gust speed)